sensor_id;sensor_type;location;lat;lon;timestamp;P1;durP1;ratioP1;P2;durP2;ratioP2
78296;SDS011;67555;47.660;19.622;2023-09-19T00:00:36;6.88;;;4.22;;
78296;SDS011;67555;47.660;19.622;2023-09-19T00:03:02;10.02;;;4.78;;
78296;SDS011;67555;47.660;19.622;2023-09-19T00:05:30;9.05;;;5.05;;
78296;SDS011;67555;47.660;19.622;2023-09-19T00:08:00;6.97;;;4.45;;
78296;SDS011;67555;47.660;19.622;2023-09-19T00:10:28;9.75;;;4.43;;
78296;SDS011;67555;47.660;19.622;2023-09-19T00:12:56;10.55;;;5.75;;
78296;SDS011;67555;47.660;19.622;2023-09-19T00:15:24;10.73;;;4.45;;
78296;SDS011;67555;47.660;19.622;2023-09-19T00:17:54;9.40;;;4.38;;
78296;SDS011;67555;47.660;19.622;2023-09-19T00:20:20;6.93;;;4.30;;
78296;SDS011;67555;47.660;19.622;2023-09-19T00:22:48;9.57;;;4.85;;
78296;SDS011;67555;47.660;19.622;2023-09-19T00:25:18;12.40;;;4.47;;
78296;SDS011;67555;47.660;19.622;2023-09-19T00:27:45;9.20;;;4.82;;
78296;SDS011;67555;47.660;19.622;2023-09-19T00:30:16;6.90;;;5.28;;
78296;SDS011;67555;47.660;19.622;2023-09-19T00:32:45;12.60;;;5.10;;
78296;SDS011;67555;47.660;19.622;2023-09-19T00:35:15;10.52;;;5.80;;
78296;SDS011;67555;47.660;19.622;2023-09-19T00:37:41;6.25;;;4.10;;
78296;SDS011;67555;47.660;19.622;2023-09-19T00:40:08;11.95;;;5.68;;
78296;SDS011;67555;47.660;19.622;2023-09-19T00:42:37;9.60;;;5.10;;
78296;SDS011;67555;47.660;19.622;2023-09-19T00:45:13;8.00;;;5.07;;
78296;SDS011;67555;47.660;19.622;2023-09-19T00:47:40;7.18;;;4.63;;
78296;SDS011;67555;47.660;19.622;2023-09-19T00:50:14;10.77;;;4.85;;
78296;SDS011;67555;47.660;19.622;2023-09-19T00:52:42;9.88;;;4.72;;
78296;SDS011;67555;47.660;19.622;2023-09-19T00:55:10;11.00;;;4.78;;
78296;SDS011;67555;47.660;19.622;2023-09-19T00:57:37;9.25;;;4.60;;
78296;SDS011;67555;47.660;19.622;2023-09-19T01:00:04;8.43;;;4.47;;
78296;SDS011;67555;47.660;19.622;2023-09-19T01:02:32;10.73;;;4.57;;
78296;SDS011;67555;47.660;19.622;2023-09-19T01:04:58;6.78;;;4.22;;
78296;SDS011;67555;47.660;19.622;2023-09-19T01:07:29;10.50;;;4.70;;
78296;SDS011;67555;47.660;19.622;2023-09-19T01:09:56;8.55;;;4.88;;
78296;SDS011;67555;47.660;19.622;2023-09-19T01:15:28;7.15;;;4.72;;
78296;SDS011;67555;47.660;19.622;2023-09-19T01:18:34;9.95;;;4.57;;
78296;SDS011;67555;47.660;19.622;2023-09-19T01:21:14;8.63;;;4.30;;
78296;SDS011;67555;47.660;19.622;2023-09-19T01:29:43;14.07;;;5.25;;
78296;SDS011;67555;47.660;19.622;2023-09-19T01:32:13;12.05;;;4.82;;
78296;SDS011;67555;47.660;19.622;2023-09-19T01:34:49;7.00;;;4.72;;
78296;SDS011;67555;47.660;19.622;2023-09-19T01:37:19;7.20;;;4.72;;
78296;SDS011;67555;47.660;19.622;2023-09-19T01:40:00;9.10;;;4.65;;
78296;SDS011;67555;47.660;19.622;2023-09-19T01:45:35;8.23;;;4.70;;
78296;SDS011;67555;47.660;19.622;2023-09-19T01:48:09;8.27;;;4.90;;
78296;SDS011;67555;47.660;19.622;2023-09-19T01:51:00;8.43;;;4.65;;
78296;SDS011;67555;47.660;19.622;2023-09-19T01:56:28;9.45;;;4.95;;
78296;SDS011;67555;47.660;19.622;2023-09-19T01:59:08;7.85;;;4.45;;
78296;SDS011;67555;47.660;19.622;2023-09-19T02:01:38;12.63;;;5.00;;
78296;SDS011;67555;47.660;19.622;2023-09-19T02:04:05;9.15;;;4.10;;
78296;SDS011;67555;47.660;19.622;2023-09-19T02:06:32;9.73;;;4.72;;
78296;SDS011;67555;47.660;19.622;2023-09-19T02:09:01;9.77;;;5.03;;
78296;SDS011;67555;47.660;19.622;2023-09-19T02:11:28;9.75;;;4.70;;
78296;SDS011;67555;47.660;19.622;2023-09-19T02:13:54;13.27;;;4.72;;
78296;SDS011;67555;47.660;19.622;2023-09-19T02:16:20;12.13;;;4.97;;
78296;SDS011;67555;47.660;19.622;2023-09-19T02:18:49;10.77;;;5.35;;
78296;SDS011;67555;47.660;19.622;2023-09-19T02:21:16;11.32;;;6.25;;
78296;SDS011;67555;47.660;19.622;2023-09-19T02:23:43;10.27;;;4.45;;
78296;SDS011;67555;47.660;19.622;2023-09-19T02:26:09;8.40;;;4.90;;
78296;SDS011;67555;47.660;19.622;2023-09-19T02:28:37;8.55;;;5.00;;
78296;SDS011;67555;47.660;19.622;2023-09-19T02:31:04;8.88;;;4.65;;
78296;SDS011;67555;47.660;19.622;2023-09-19T02:33:33;10.98;;;5.25;;
78296;SDS011;67555;47.660;19.622;2023-09-19T02:36:00;9.05;;;5.15;;
78296;SDS011;67555;47.660;19.622;2023-09-19T02:38:25;8.23;;;4.53;;
78296;SDS011;67555;47.660;19.622;2023-09-19T02:40:52;10.50;;;5.90;;
78296;SDS011;67555;47.660;19.622;2023-09-19T02:43:20;12.23;;;4.63;;
78296;SDS011;67555;47.660;19.622;2023-09-19T02:45:46;9.90;;;5.15;;
78296;SDS011;67555;47.660;19.622;2023-09-19T02:48:14;7.05;;;4.57;;
78296;SDS011;67555;47.660;19.622;2023-09-19T02:50:41;13.20;;;5.03;;
78296;SDS011;67555;47.660;19.622;2023-09-19T02:53:07;9.45;;;4.90;;
78296;SDS011;67555;47.660;19.622;2023-09-19T02:55:36;9.93;;;4.75;;
78296;SDS011;67555;47.660;19.622;2023-09-19T02:58:03;17.35;;;5.28;;
78296;SDS011;67555;47.660;19.622;2023-09-19T03:00:30;6.35;;;4.88;;
78296;SDS011;67555;47.660;19.622;2023-09-19T03:02:56;12.05;;;5.55;;
78296;SDS011;67555;47.660;19.622;2023-09-19T03:05:22;10.80;;;4.93;;
78296;SDS011;67555;47.660;19.622;2023-09-19T03:07:48;14.30;;;5.53;;
78296;SDS011;67555;47.660;19.622;2023-09-19T03:10:18;8.20;;;4.97;;
78296;SDS011;67555;47.660;19.622;2023-09-19T03:12:45;10.85;;;4.85;;
78296;SDS011;67555;47.660;19.622;2023-09-19T03:15:11;10.57;;;4.65;;
78296;SDS011;67555;47.660;19.622;2023-09-19T03:17:43;9.77;;;5.32;;
78296;SDS011;67555;47.660;19.622;2023-09-19T03:20:18;8.57;;;4.70;;
78296;SDS011;67555;47.660;19.622;2023-09-19T03:22:46;11.60;;;6.25;;
78296;SDS011;67555;47.660;19.622;2023-09-19T03:25:13;6.47;;;4.50;;
78296;SDS011;67555;47.660;19.622;2023-09-19T03:27:39;9.30;;;4.72;;
78296;SDS011;67555;47.660;19.622;2023-09-19T03:30:05;6.85;;;4.38;;
78296;SDS011;67555;47.660;19.622;2023-09-19T03:35:02;9.82;;;5.20;;
78296;SDS011;67555;47.660;19.622;2023-09-19T03:37:31;7.85;;;4.88;;
78296;SDS011;67555;47.660;19.622;2023-09-19T03:40:00;8.18;;;5.03;;
78296;SDS011;67555;47.660;19.622;2023-09-19T03:42:30;14.57;;;5.75;;
78296;SDS011;67555;47.660;19.622;2023-09-19T03:44:56;10.77;;;5.43;;
78296;SDS011;67555;47.660;19.622;2023-09-19T03:47:24;11.88;;;5.63;;
78296;SDS011;67555;47.660;19.622;2023-09-19T03:49:50;10.38;;;5.15;;
78296;SDS011;67555;47.660;19.622;2023-09-19T03:52:17;8.60;;;5.38;;
78296;SDS011;67555;47.660;19.622;2023-09-19T03:54:42;12.20;;;6.03;;
78296;SDS011;67555;47.660;19.622;2023-09-19T03:57:08;7.38;;;4.78;;
78296;SDS011;67555;47.660;19.622;2023-09-19T03:59:34;8.98;;;5.03;;
78296;SDS011;67555;47.660;19.622;2023-09-19T04:02:00;8.85;;;4.97;;
78296;SDS011;67555;47.660;19.622;2023-09-19T04:04:27;7.75;;;5.07;;
78296;SDS011;67555;47.660;19.622;2023-09-19T04:06:54;8.82;;;5.20;;
78296;SDS011;67555;47.660;19.622;2023-09-19T04:09:20;11.63;;;5.30;;
78296;SDS011;67555;47.660;19.622;2023-09-19T04:11:45;9.10;;;5.35;;
78296;SDS011;67555;47.660;19.622;2023-09-19T04:14:11;8.07;;;4.80;;
78296;SDS011;67555;47.660;19.622;2023-09-19T04:16:37;11.20;;;5.82;;
78296;SDS011;67555;47.660;19.622;2023-09-19T04:19:04;8.10;;;5.07;;
78296;SDS011;67555;47.660;19.622;2023-09-19T04:21:30;11.68;;;5.13;;
78296;SDS011;67555;47.660;19.622;2023-09-19T04:23:57;9.80;;;5.35;;
78296;SDS011;67555;47.660;19.622;2023-09-19T04:26:24;10.57;;;5.45;;
78296;SDS011;67555;47.660;19.622;2023-09-19T04:28:51;13.75;;;6.60;;
78296;SDS011;67555;47.660;19.622;2023-09-19T04:31:16;7.70;;;5.22;;
78296;SDS011;67555;47.660;19.622;2023-09-19T04:33:43;11.05;;;5.68;;
78296;SDS011;67555;47.660;19.622;2023-09-19T04:36:09;11.55;;;5.80;;
78296;SDS011;67555;47.660;19.622;2023-09-19T04:38:35;16.98;;;4.97;;
78296;SDS011;67555;47.660;19.622;2023-09-19T04:41:01;16.10;;;6.45;;
78296;SDS011;67555;47.660;19.622;2023-09-19T04:43:27;12.43;;;5.93;;
78296;SDS011;67555;47.660;19.622;2023-09-19T04:45:55;8.63;;;5.28;;
78296;SDS011;67555;47.660;19.622;2023-09-19T04:48:21;9.43;;;5.28;;
78296;SDS011;67555;47.660;19.622;2023-09-19T04:50:50;9.80;;;5.55;;
78296;SDS011;67555;47.660;19.622;2023-09-19T04:53:17;10.85;;;6.30;;
78296;SDS011;67555;47.660;19.622;2023-09-19T04:55:45;13.05;;;6.03;;
78296;SDS011;67555;47.660;19.622;2023-09-19T04:58:14;14.23;;;5.88;;
78296;SDS011;67555;47.660;19.622;2023-09-19T05:00:41;10.52;;;5.78;;
78296;SDS011;67555;47.660;19.622;2023-09-19T05:03:07;10.02;;;6.18;;
78296;SDS011;67555;47.660;19.622;2023-09-19T05:05:33;12.95;;;6.25;;
78296;SDS011;67555;47.660;19.622;2023-09-19T05:07:59;13.95;;;7.38;;
78296;SDS011;67555;47.660;19.622;2023-09-19T05:10:25;12.65;;;7.25;;
78296;SDS011;67555;47.660;19.622;2023-09-19T05:12:54;18.17;;;8.15;;
78296;SDS011;67555;47.660;19.622;2023-09-19T05:15:20;15.73;;;7.53;;
78296;SDS011;67555;47.660;19.622;2023-09-19T05:17:49;12.18;;;6.07;;
78296;SDS011;67555;47.660;19.622;2023-09-19T05:20:16;12.20;;;6.95;;
78296;SDS011;67555;47.660;19.622;2023-09-19T05:23:01;15.40;;;6.15;;
78296;SDS011;67555;47.660;19.622;2023-09-19T05:25:31;13.75;;;6.22;;
78296;SDS011;67555;47.660;19.622;2023-09-19T05:27:58;11.40;;;6.50;;
78296;SDS011;67555;47.660;19.622;2023-09-19T05:30:25;10.63;;;6.30;;
78296;SDS011;67555;47.660;19.622;2023-09-19T05:32:52;11.35;;;6.22;;
78296;SDS011;67555;47.660;19.622;2023-09-19T05:35:19;9.93;;;6.65;;
78296;SDS011;67555;47.660;19.622;2023-09-19T05:37:46;11.43;;;6.38;;
78296;SDS011;67555;47.660;19.622;2023-09-19T05:40:17;11.73;;;6.22;;
78296;SDS011;67555;47.660;19.622;2023-09-19T05:42:43;14.88;;;5.97;;
78296;SDS011;67555;47.660;19.622;2023-09-19T05:45:10;12.75;;;6.22;;
78296;SDS011;67555;47.660;19.622;2023-09-19T05:47:41;9.45;;;5.93;;
78296;SDS011;67555;47.660;19.622;2023-09-19T05:50:08;10.65;;;5.13;;
78296;SDS011;67555;47.660;19.622;2023-09-19T05:52:35;12.32;;;5.13;;
78296;SDS011;67555;47.660;19.622;2023-09-19T05:55:03;10.35;;;5.47;;
78296;SDS011;67555;47.660;19.622;2023-09-19T05:57:31;12.40;;;5.07;;
78296;SDS011;67555;47.660;19.622;2023-09-19T05:59:57;10.82;;;4.35;;
78296;SDS011;67555;47.660;19.622;2023-09-19T06:02:23;6.82;;;3.78;;
78296;SDS011;67555;47.660;19.622;2023-09-19T06:04:52;4.97;;;3.03;;
78296;SDS011;67555;47.660;19.622;2023-09-19T06:09:47;7.35;;;2.80;;
78296;SDS011;67555;47.660;19.622;2023-09-19T06:12:12;6.90;;;2.70;;
78296;SDS011;67555;47.660;19.622;2023-09-19T06:14:40;2.88;;;1.80;;
78296;SDS011;67555;47.660;19.622;2023-09-19T06:17:06;2.80;;;1.70;;
78296;SDS011;67555;47.660;19.622;2023-09-19T06:19:33;3.28;;;1.40;;
78296;SDS011;67555;47.660;19.622;2023-09-19T06:21:59;7.85;;;1.90;;
78296;SDS011;67555;47.660;19.622;2023-09-19T06:24:24;2.15;;;1.60;;
78296;SDS011;67555;47.660;19.622;2023-09-19T06:26:50;4.63;;;1.52;;
78296;SDS011;67555;47.660;19.622;2023-09-19T06:29:18;1.77;;;1.27;;
78296;SDS011;67555;47.660;19.622;2023-09-19T06:31:45;2.50;;;1.50;;
78296;SDS011;67555;47.660;19.622;2023-09-19T06:34:12;2.00;;;1.27;;
78296;SDS011;67555;47.660;19.622;2023-09-19T06:39:06;3.08;;;1.50;;
78296;SDS011;67555;47.660;19.622;2023-09-19T06:41:36;8.95;;;2.03;;
78296;SDS011;67555;47.660;19.622;2023-09-19T06:44:04;1.30;;;1.00;;
78296;SDS011;67555;47.660;19.622;2023-09-19T06:46:30;1.23;;;1.10;;
78296;SDS011;67555;47.660;19.622;2023-09-19T06:49:00;1.23;;;1.13;;
78296;SDS011;67555;47.660;19.622;2023-09-19T06:51:32;3.08;;;1.45;;
78296;SDS011;67555;47.660;19.622;2023-09-19T06:54:00;1.27;;;1.08;;
78296;SDS011;67555;47.660;19.622;2023-09-19T06:56:26;1.60;;;1.10;;
78296;SDS011;67555;47.660;19.622;2023-09-19T06:58:52;1.20;;;0.93;;
78296;SDS011;67555;47.660;19.622;2023-09-19T07:01:18;1.63;;;0.95;;
78296;SDS011;67555;47.660;19.622;2023-09-19T07:03:43;2.63;;;2.10;;
78296;SDS011;67555;47.660;19.622;2023-09-19T07:06:10;2.47;;;1.10;;
78296;SDS011;67555;47.660;19.622;2023-09-19T07:08:36;1.65;;;1.25;;
78296;SDS011;67555;47.660;19.622;2023-09-19T07:11:03;5.40;;;1.17;;
78296;SDS011;67555;47.660;19.622;2023-09-19T07:13:31;1.67;;;1.10;;
78296;SDS011;67555;47.660;19.622;2023-09-19T07:15:58;7.88;;;1.27;;
78296;SDS011;67555;47.660;19.622;2023-09-19T07:18:24;1.73;;;1.25;;
78296;SDS011;67555;47.660;19.622;2023-09-19T07:20:50;0.82;;;0.82;;
78296;SDS011;67555;47.660;19.622;2023-09-19T07:23:17;1.42;;;1.33;;
78296;SDS011;67555;47.660;19.622;2023-09-19T07:25:45;3.42;;;1.30;;
78296;SDS011;67555;47.660;19.622;2023-09-19T07:28:11;2.00;;;0.95;;
78296;SDS011;67555;47.660;19.622;2023-09-19T07:30:37;4.15;;;0.98;;
78296;SDS011;67555;47.660;19.622;2023-09-19T07:33:04;0.65;;;0.65;;
78296;SDS011;67555;47.660;19.622;2023-09-19T07:35:30;1.08;;;0.70;;
78296;SDS011;67555;47.660;19.622;2023-09-19T07:37:56;1.92;;;1.13;;
78296;SDS011;67555;47.660;19.622;2023-09-19T07:40:23;1.60;;;0.60;;
78296;SDS011;67555;47.660;19.622;2023-09-19T07:42:52;1.50;;;1.13;;
78296;SDS011;67555;47.660;19.622;2023-09-19T07:45:18;3.85;;;0.55;;
78296;SDS011;67555;47.660;19.622;2023-09-19T07:47:47;1.00;;;0.52;;
78296;SDS011;67555;47.660;19.622;2023-09-19T07:50:13;0.50;;;0.50;;
78296;SDS011;67555;47.660;19.622;2023-09-19T07:52:41;0.45;;;0.45;;
78296;SDS011;67555;47.660;19.622;2023-09-19T07:55:08;0.32;;;0.32;;
78296;SDS011;67555;47.660;19.622;2023-09-19T07:57:34;1.27;;;0.73;;
78296;SDS011;67555;47.660;19.622;2023-09-19T08:00:01;1.55;;;0.95;;
78296;SDS011;67555;47.660;19.622;2023-09-19T08:02:29;0.90;;;0.75;;
78296;SDS011;67555;47.660;19.622;2023-09-19T08:04:59;0.93;;;0.60;;
78296;SDS011;67555;47.660;19.622;2023-09-19T08:07:26;1.30;;;0.85;;
78296;SDS011;67555;47.660;19.622;2023-09-19T08:09:53;0.90;;;0.90;;
78296;SDS011;67555;47.660;19.622;2023-09-19T08:12:19;3.83;;;0.90;;
78296;SDS011;67555;47.660;19.622;2023-09-19T08:14:49;1.23;;;0.88;;
78296;SDS011;67555;47.660;19.622;2023-09-19T08:17:15;0.65;;;0.60;;
78296;SDS011;67555;47.660;19.622;2023-09-19T08:19:41;0.80;;;0.80;;
78296;SDS011;67555;47.660;19.622;2023-09-19T08:22:10;1.38;;;0.93;;
78296;SDS011;67555;47.660;19.622;2023-09-19T08:24:36;0.98;;;0.73;;
78296;SDS011;67555;47.660;19.622;2023-09-19T08:27:03;1.23;;;0.82;;
78296;SDS011;67555;47.660;19.622;2023-09-19T08:29:31;0.90;;;0.40;;
78296;SDS011;67555;47.660;19.622;2023-09-19T08:31:57;1.27;;;0.85;;
78296;SDS011;67555;47.660;19.622;2023-09-19T08:34:23;1.10;;;1.00;;
78296;SDS011;67555;47.660;19.622;2023-09-19T08:36:50;0.85;;;0.75;;
78296;SDS011;67555;47.660;19.622;2023-09-19T08:39:18;0.70;;;0.70;;
78296;SDS011;67555;47.660;19.622;2023-09-19T08:41:44;1.13;;;0.85;;
78296;SDS011;67555;47.660;19.622;2023-09-19T08:44:10;2.97;;;1.08;;
78296;SDS011;67555;47.660;19.622;2023-09-19T08:46:36;1.85;;;0.88;;
78296;SDS011;67555;47.660;19.622;2023-09-19T08:49:27;2.20;;;0.70;;
78296;SDS011;67555;47.660;19.622;2023-09-19T08:52:10;4.55;;;1.63;;
78296;SDS011;67555;47.660;19.622;2023-09-19T08:54:46;2.20;;;1.40;;
78296;SDS011;67555;47.660;19.622;2023-09-19T08:57:16;2.80;;;1.02;;
78296;SDS011;67555;47.660;19.622;2023-09-19T08:59:47;1.65;;;1.00;;
78296;SDS011;67555;47.660;19.622;2023-09-19T09:02:15;2.83;;;1.13;;
78296;SDS011;67555;47.660;19.622;2023-09-19T09:04:42;1.10;;;1.00;;
78296;SDS011;67555;47.660;19.622;2023-09-19T09:07:12;1.38;;;1.27;;
78296;SDS011;67555;47.660;19.622;2023-09-19T09:09:39;1.50;;;1.13;;
78296;SDS011;67555;47.660;19.622;2023-09-19T09:12:12;2.95;;;1.10;;
78296;SDS011;67555;47.660;19.622;2023-09-19T09:14:39;3.13;;;1.10;;
78296;SDS011;67555;47.660;19.622;2023-09-19T09:17:06;1.25;;;1.10;;
78296;SDS011;67555;47.660;19.622;2023-09-19T09:19:32;2.10;;;1.20;;
78296;SDS011;67555;47.660;19.622;2023-09-19T09:22:08;1.48;;;1.20;;
78296;SDS011;67555;47.660;19.622;2023-09-19T09:24:34;2.00;;;1.30;;
78296;SDS011;67555;47.660;19.622;2023-09-19T09:27:06;1.98;;;1.27;;
78296;SDS011;67555;47.660;19.622;2023-09-19T09:29:48;2.75;;;1.67;;
78296;SDS011;67555;47.660;19.622;2023-09-19T09:34:45;1.77;;;1.13;;
78296;SDS011;67555;47.660;19.622;2023-09-19T09:37:19;1.92;;;1.10;;
78296;SDS011;67555;47.660;19.622;2023-09-19T09:39:49;1.95;;;1.50;;
78296;SDS011;67555;47.660;19.622;2023-09-19T09:45:13;5.82;;;1.30;;
78296;SDS011;67555;47.660;19.622;2023-09-19T09:47:58;1.48;;;1.08;;
78296;SDS011;67555;47.660;19.622;2023-09-19T09:50:29;3.70;;;1.55;;
78296;SDS011;67555;47.660;19.622;2023-09-19T09:53:28;2.00;;;1.30;;
78296;SDS011;67555;47.660;19.622;2023-09-19T09:56:03;1.83;;;1.35;;
78296;SDS011;67555;47.660;19.622;2023-09-19T10:01:45;2.33;;;1.05;;
78296;SDS011;67555;47.660;19.622;2023-09-19T10:04:12;1.77;;;1.30;;
78296;SDS011;67555;47.660;19.622;2023-09-19T10:06:54;0.80;;;0.80;;
78296;SDS011;67555;47.660;19.622;2023-09-19T10:09:20;1.80;;;1.20;;
78296;SDS011;67555;47.660;19.622;2023-09-19T10:12:03;1.75;;;1.02;;
78296;SDS011;67555;47.660;19.622;2023-09-19T10:14:37;1.35;;;0.88;;
78296;SDS011;67555;47.660;19.622;2023-09-19T10:17:08;1.83;;;1.10;;
78296;SDS011;67555;47.660;19.622;2023-09-19T10:24:50;1.48;;;1.10;;
78296;SDS011;67555;47.660;19.622;2023-09-19T10:27:19;1.73;;;1.15;;
78296;SDS011;67555;47.660;19.622;2023-09-19T10:32:16;1.83;;;1.13;;
78296;SDS011;67555;47.660;19.622;2023-09-19T10:34:44;2.30;;;1.15;;
78296;SDS011;67555;47.660;19.622;2023-09-19T10:37:12;1.40;;;0.88;;
78296;SDS011;67555;47.660;19.622;2023-09-19T10:39:40;1.63;;;1.27;;
78296;SDS011;67555;47.660;19.622;2023-09-19T10:42:07;1.80;;;1.27;;
78296;SDS011;67555;47.660;19.622;2023-09-19T10:44:37;1.52;;;1.15;;
78296;SDS011;67555;47.660;19.622;2023-09-19T10:47:09;2.17;;;1.15;;
78296;SDS011;67555;47.660;19.622;2023-09-19T10:49:35;1.38;;;1.10;;
78296;SDS011;67555;47.660;19.622;2023-09-19T10:52:11;1.88;;;1.20;;
78296;SDS011;67555;47.660;19.622;2023-09-19T10:54:45;1.85;;;1.17;;
78296;SDS011;67555;47.660;19.622;2023-09-19T10:57:24;2.28;;;1.30;;
78296;SDS011;67555;47.660;19.622;2023-09-19T11:00:05;4.15;;;1.45;;
78296;SDS011;67555;47.660;19.622;2023-09-19T11:05:37;2.78;;;1.15;;
78296;SDS011;67555;47.660;19.622;2023-09-19T11:08:08;1.52;;;1.33;;
78296;SDS011;67555;47.660;19.622;2023-09-19T11:13:25;2.22;;;1.30;;
78296;SDS011;67555;47.660;19.622;2023-09-19T11:26:43;3.58;;;1.30;;
78296;SDS011;67555;47.660;19.622;2023-09-19T11:29:25;1.90;;;1.38;;
78296;SDS011;67555;47.660;19.622;2023-09-19T11:31:52;3.47;;;1.17;;
78296;SDS011;67555;47.660;19.622;2023-09-19T11:39:29;4.97;;;1.40;;
78296;SDS011;67555;47.660;19.622;2023-09-19T11:41:55;4.45;;;1.30;;
78296;SDS011;67555;47.660;19.622;2023-09-19T11:49:17;1.55;;;1.13;;
78296;SDS011;67555;47.660;19.622;2023-09-19T11:51:50;2.10;;;1.35;;
78296;SDS011;67555;47.660;19.622;2023-09-19T11:54:19;3.63;;;1.80;;
78296;SDS011;67555;47.660;19.622;2023-09-19T11:56:48;2.42;;;1.30;;
78296;SDS011;67555;47.660;19.622;2023-09-19T11:59:22;3.80;;;1.33;;
78296;SDS011;67555;47.660;19.622;2023-09-19T12:01:53;2.97;;;1.60;;
78296;SDS011;67555;47.660;19.622;2023-09-19T12:04:36;3.13;;;1.42;;
78296;SDS011;67555;47.660;19.622;2023-09-19T12:07:08;1.42;;;1.33;;
78296;SDS011;67555;47.660;19.622;2023-09-19T12:09:40;1.33;;;1.02;;
78296;SDS011;67555;47.660;19.622;2023-09-19T12:12:22;1.80;;;1.50;;
78296;SDS011;67555;47.660;19.622;2023-09-19T12:14:52;5.60;;;2.22;;
78296;SDS011;67555;47.660;19.622;2023-09-19T12:17:22;3.13;;;1.50;;
78296;SDS011;67555;47.660;19.622;2023-09-19T12:19:52;2.33;;;1.50;;
78296;SDS011;67555;47.660;19.622;2023-09-19T12:22:18;3.05;;;1.40;;
78296;SDS011;67555;47.660;19.622;2023-09-19T12:24:46;2.63;;;1.65;;
78296;SDS011;67555;47.660;19.622;2023-09-19T12:27:13;2.00;;;1.40;;
78296;SDS011;67555;47.660;19.622;2023-09-19T12:29:46;2.90;;;1.60;;
78296;SDS011;67555;47.660;19.622;2023-09-19T12:32:35;2.10;;;1.42;;
78296;SDS011;67555;47.660;19.622;2023-09-19T12:35:05;2.10;;;1.50;;
78296;SDS011;67555;47.660;19.622;2023-09-19T12:37:42;5.05;;;1.23;;
78296;SDS011;67555;47.660;19.622;2023-09-19T12:40:13;2.05;;;1.33;;
78296;SDS011;67555;47.660;19.622;2023-09-19T12:42:44;2.10;;;1.30;;
78296;SDS011;67555;47.660;19.622;2023-09-19T12:45:11;2.38;;;1.40;;
78296;SDS011;67555;47.660;19.622;2023-09-19T12:53:38;1.92;;;1.10;;
78296;SDS011;67555;47.660;19.622;2023-09-19T12:56:16;3.72;;;1.27;;
78296;SDS011;67555;47.660;19.622;2023-09-19T12:58:52;1.52;;;1.30;;
78296;SDS011;67555;47.660;19.622;2023-09-19T13:01:19;3.83;;;1.13;;
78296;SDS011;67555;47.660;19.622;2023-09-19T13:04:33;4.95;;;1.48;;
78296;SDS011;67555;47.660;19.622;2023-09-19T13:06:44;2.63;;;1.30;;
78296;SDS011;67555;47.660;19.622;2023-09-19T13:09:14;3.90;;;1.50;;
78296;SDS011;67555;47.660;19.622;2023-09-19T13:11:41;4.00;;;1.45;;
78296;SDS011;67555;47.660;19.622;2023-09-19T13:25:13;4.32;;;1.40;;
78296;SDS011;67555;47.660;19.622;2023-09-19T13:27:43;0.98;;;0.90;;
78296;SDS011;67555;47.660;19.622;2023-09-19T13:32:37;2.88;;;1.50;;
78296;SDS011;67555;47.660;19.622;2023-09-19T13:35:05;1.50;;;0.88;;
78296;SDS011;67555;47.660;19.622;2023-09-19T13:37:34;4.57;;;1.90;;
78296;SDS011;67555;47.660;19.622;2023-09-19T13:40:04;6.30;;;1.70;;
78296;SDS011;67555;47.660;19.622;2023-09-19T13:42:30;3.75;;;1.42;;
78296;SDS011;67555;47.660;19.622;2023-09-19T13:44:56;0.80;;;0.70;;
78296;SDS011;67555;47.660;19.622;2023-09-19T13:47:22;3.67;;;2.10;;
78296;SDS011;67555;47.660;19.622;2023-09-19T13:49:51;1.75;;;1.25;;
78296;SDS011;67555;47.660;19.622;2023-09-19T13:52:20;6.35;;;2.10;;
78296;SDS011;67555;47.660;19.622;2023-09-19T13:54:48;2.30;;;1.58;;
78296;SDS011;67555;47.660;19.622;2023-09-19T13:57:18;1.48;;;1.20;;
78296;SDS011;67555;47.660;19.622;2023-09-19T13:59:43;1.42;;;1.30;;
78296;SDS011;67555;47.660;19.622;2023-09-19T14:02:09;3.88;;;1.90;;
78296;SDS011;67555;47.660;19.622;2023-09-19T14:04:35;3.08;;;2.00;;
78296;SDS011;67555;47.660;19.622;2023-09-19T14:07:01;3.40;;;1.65;;
78296;SDS011;67555;47.660;19.622;2023-09-19T14:09:27;2.65;;;1.48;;
78296;SDS011;67555;47.660;19.622;2023-09-19T14:11:53;1.95;;;1.65;;
78296;SDS011;67555;47.660;19.622;2023-09-19T14:14:19;2.15;;;1.30;;
78296;SDS011;67555;47.660;19.622;2023-09-19T14:16:48;12.00;;;1.80;;
78296;SDS011;67555;47.660;19.622;2023-09-19T14:19:14;3.95;;;1.50;;
78296;SDS011;67555;47.660;19.622;2023-09-19T14:21:41;1.58;;;1.35;;
78296;SDS011;67555;47.660;19.622;2023-09-19T14:24:07;4.90;;;1.92;;
78296;SDS011;67555;47.660;19.622;2023-09-19T14:26:37;1.88;;;1.35;;
78296;SDS011;67555;47.660;19.622;2023-09-19T14:29:04;1.75;;;1.30;;
78296;SDS011;67555;47.660;19.622;2023-09-19T14:31:36;4.47;;;2.25;;
78296;SDS011;67555;47.660;19.622;2023-09-19T14:34:04;2.30;;;1.42;;
78296;SDS011;67555;47.660;19.622;2023-09-19T14:36:30;2.35;;;1.80;;
78296;SDS011;67555;47.660;19.622;2023-09-19T14:38:57;5.20;;;1.90;;
78296;SDS011;67555;47.660;19.622;2023-09-19T14:41:23;5.65;;;2.20;;
78296;SDS011;67555;47.660;19.622;2023-09-19T14:43:51;2.40;;;1.70;;
78296;SDS011;67555;47.660;19.622;2023-09-19T14:46:18;2.60;;;1.45;;
78296;SDS011;67555;47.660;19.622;2023-09-19T14:48:44;3.17;;;1.92;;
78296;SDS011;67555;47.660;19.622;2023-09-19T14:51:13;3.05;;;1.85;;
78296;SDS011;67555;47.660;19.622;2023-09-19T14:53:39;6.70;;;2.17;;
78296;SDS011;67555;47.660;19.622;2023-09-19T14:56:09;2.80;;;1.98;;
78296;SDS011;67555;47.660;19.622;2023-09-19T14:58:37;3.85;;;1.63;;
78296;SDS011;67555;47.660;19.622;2023-09-19T15:01:05;2.58;;;1.88;;
78296;SDS011;67555;47.660;19.622;2023-09-19T15:03:35;3.67;;;2.03;;
78296;SDS011;67555;47.660;19.622;2023-09-19T15:06:04;3.22;;;1.60;;
78296;SDS011;67555;47.660;19.622;2023-09-19T15:08:39;2.72;;;2.38;;
78296;SDS011;67555;47.660;19.622;2023-09-19T15:11:11;2.20;;;1.42;;
78296;SDS011;67555;47.660;19.622;2023-09-19T15:13:38;8.50;;;1.40;;
78296;SDS011;67555;47.660;19.622;2023-09-19T15:16:05;2.08;;;1.35;;
78296;SDS011;67555;47.660;19.622;2023-09-19T15:18:45;2.28;;;1.60;;
78296;SDS011;67555;47.660;19.622;2023-09-19T15:21:15;2.72;;;1.75;;
78296;SDS011;67555;47.660;19.622;2023-09-19T15:23:45;9.27;;;2.05;;
78296;SDS011;67555;47.660;19.622;2023-09-19T15:26:14;2.28;;;1.55;;
78296;SDS011;67555;47.660;19.622;2023-09-19T15:28:46;6.05;;;2.25;;
78296;SDS011;67555;47.660;19.622;2023-09-19T15:31:13;3.13;;;1.60;;
78296;SDS011;67555;47.660;19.622;2023-09-19T15:33:39;2.72;;;1.80;;
78296;SDS011;67555;47.660;19.622;2023-09-19T15:36:06;5.65;;;2.00;;
78296;SDS011;67555;47.660;19.622;2023-09-19T15:41:27;5.60;;;2.05;;
78296;SDS011;67555;47.660;19.622;2023-09-19T15:43:58;2.38;;;1.58;;
78296;SDS011;67555;47.660;19.622;2023-09-19T15:46:26;2.33;;;1.67;;
78296;SDS011;67555;47.660;19.622;2023-09-19T15:48:54;4.35;;;2.95;;
78296;SDS011;67555;47.660;19.622;2023-09-19T15:51:20;5.30;;;2.03;;
78296;SDS011;67555;47.660;19.622;2023-09-19T15:53:47;4.82;;;1.65;;
78296;SDS011;67555;47.660;19.622;2023-09-19T15:56:15;2.70;;;1.65;;
78296;SDS011;67555;47.660;19.622;2023-09-19T15:58:49;4.35;;;1.90;;
78296;SDS011;67555;47.660;19.622;2023-09-19T16:01:16;4.90;;;1.33;;
78296;SDS011;67555;47.660;19.622;2023-09-19T16:04:02;3.50;;;1.70;;
78296;SDS011;67555;47.660;19.622;2023-09-19T16:06:29;1.88;;;1.40;;
78296;SDS011;67555;47.660;19.622;2023-09-19T16:09:00;3.33;;;1.55;;